createdAt,value
2023-01-09T00:01:45.626Z,8.43
2023-01-09T00:04:15.376Z,8.65
2023-01-09T00:06:46.580Z,10.18
2023-01-09T00:09:15.674Z,11.85
2023-01-09T00:11:46.563Z,9.20
2023-01-09T00:14:15.707Z,9.98
2023-01-09T00:16:44.849Z,9.10
2023-01-09T00:19:14.422Z,9.38
2023-01-09T00:21:43.440Z,7.55
2023-01-09T00:24:12.454Z,9.05
2023-01-09T00:26:41.431Z,8.77
2023-01-09T00:29:13.481Z,9.55
2023-01-09T00:31:42.525Z,8.50
2023-01-09T00:34:12.094Z,10.55
2023-01-09T00:36:41.261Z,10.20
2023-01-09T00:39:10.255Z,9.38
2023-01-09T00:41:42.217Z,9.10
2023-01-09T00:44:16.279Z,9.68
2023-01-09T00:46:50.394Z,9.75
2023-01-09T00:49:20.408Z,9.98
2023-01-09T00:51:50.180Z,9.57
2023-01-09T00:54:20.782Z,10.05
2023-01-09T00:56:51.315Z,10.48
2023-01-09T00:59:21.808Z,10.10
2023-01-09T01:01:50.996Z,11.63
2023-01-09T01:04:37.597Z,10.63
2023-01-09T01:07:23.805Z,10.50
2023-01-09T01:09:52.892Z,12.60
2023-01-09T01:12:21.895Z,12.57
2023-01-09T01:14:53.620Z,11.43
2023-01-09T01:17:23.480Z,12.65
2023-01-09T01:19:56.440Z,10.10
2023-01-09T01:22:25.403Z,10.20
2023-01-09T01:24:54.423Z,10.65
2023-01-09T01:27:23.500Z,11.30
2023-01-09T01:29:54.181Z,10.77
2023-01-09T01:32:23.337Z,12.75
2023-01-09T01:34:52.383Z,11.15
2023-01-09T01:37:22.080Z,11.00
2023-01-09T01:39:52.594Z,12.02
2023-01-09T01:42:21.996Z,12.68
2023-01-09T01:45:02.853Z,10.52
2023-01-09T01:47:38.096Z,12.50
2023-01-09T01:50:14.527Z,10.93
2023-01-09T01:52:46.162Z,11.55
2023-01-09T01:55:19.090Z,11.50
2023-01-09T01:57:50.541Z,12.00
2023-01-09T02:00:26.391Z,11.65
2023-01-09T02:02:55.962Z,13.55
2023-01-09T02:06:26.524Z,11.88
2023-01-09T02:08:56.485Z,11.13
2023-01-09T02:11:26.245Z,12.30
2023-01-09T02:13:55.638Z,10.10
2023-01-09T02:16:39.765Z,11.55
2023-01-09T02:19:22.220Z,11.85
2023-01-09T02:22:00.468Z,11.52
2023-01-09T02:24:48.152Z,12.88
2023-01-09T02:27:53.483Z,12.93
2023-01-09T02:30:33.897Z,11.25
2023-01-09T02:33:13.877Z,12.23
2023-01-09T02:36:02.832Z,13.85
2023-01-09T02:38:41.410Z,12.98
2023-01-09T02:41:17.885Z,12.38
2023-01-09T02:43:47.211Z,13.27
2023-01-09T02:46:23.526Z,12.30
2023-01-09T02:48:55.488Z,13.68
2023-01-09T02:51:34.336Z,11.40
2023-01-09T02:54:30.540Z,13.38
2023-01-09T02:57:41.066Z,13.00
2023-01-09T03:00:19.202Z,16.02
2023-01-09T03:02:55.384Z,13.60
2023-01-09T03:05:32.190Z,13.85
2023-01-09T03:08:05.646Z,11.90
2023-01-09T03:10:42.346Z,12.82
2023-01-09T03:13:15.544Z,13.65
2023-01-09T03:15:49.740Z,14.48
2023-01-09T03:18:23.882Z,15.50
2023-01-09T03:20:55.496Z,13.02
2023-01-09T03:23:25.527Z,12.55
2023-01-09T03:25:54.781Z,13.45
2023-01-09T03:28:29.269Z,13.45
2023-01-09T03:30:58.484Z,12.63
2023-01-09T03:33:29.120Z,14.20
2023-01-09T03:35:58.403Z,11.35
2023-01-09T03:38:27.543Z,12.65
2023-01-09T03:40:56.716Z,13.50
2023-01-09T03:43:25.859Z,13.27
2023-01-09T03:45:55.253Z,12.75
2023-01-09T03:48:24.741Z,14.30
2023-01-09T03:50:56.964Z,13.27
2023-01-09T03:53:29.663Z,13.82
2023-01-09T03:56:00.047Z,13.05
2023-01-09T03:58:29.553Z,12.45
2023-01-09T04:01:02.242Z,14.38
2023-01-09T04:03:31.669Z,14.65
2023-01-09T04:06:02.306Z,13.80
2023-01-09T04:08:31.959Z,11.93
2023-01-09T04:11:01.213Z,13.20
2023-01-09T04:13:30.427Z,12.25
2023-01-09T04:15:59.877Z,14.38
2023-01-09T04:18:29.128Z,14.50
2023-01-09T04:20:58.466Z,12.65
2023-01-09T04:23:29.138Z,13.05
2023-01-09T04:25:58.343Z,12.63
2023-01-09T04:28:27.722Z,13.02
2023-01-09T04:30:56.901Z,12.90
2023-01-09T04:33:26.357Z,12.55
2023-01-09T04:35:55.740Z,12.85
2023-01-09T04:38:24.940Z,12.25
2023-01-09T04:40:55.850Z,12.00
2023-01-09T04:43:25.030Z,12.93
2023-01-09T04:45:54.300Z,12.70
2023-01-09T04:48:23.494Z,12.40
2023-01-09T04:50:52.725Z,11.35
2023-01-09T04:53:21.901Z,12.00
2023-01-09T04:55:51.146Z,12.82
2023-01-09T04:58:21.672Z,13.43
2023-01-09T05:00:50.983Z,14.00
2023-01-09T05:03:20.133Z,13.68
2023-01-09T05:05:49.341Z,10.93
2023-01-09T05:08:18.489Z,12.43
2023-01-09T05:10:47.668Z,11.77
2023-01-09T05:13:16.983Z,13.43
2023-01-09T05:15:47.643Z,12.60
2023-01-09T05:18:17.052Z,14.23
2023-01-09T05:20:46.181Z,14.27
2023-01-09T05:23:15.469Z,12.50
2023-01-09T05:25:44.773Z,13.18
2023-01-09T05:28:13.945Z,12.95
2023-01-09T05:30:43.176Z,11.55
2023-01-09T05:33:13.767Z,13.70
2023-01-09T05:35:42.963Z,12.38
2023-01-09T05:38:12.409Z,13.32
2023-01-09T05:40:41.641Z,12.65
2023-01-09T05:43:11.005Z,12.95
2023-01-09T05:45:40.151Z,11.07
2023-01-09T05:48:09.488Z,12.07
2023-01-09T05:50:40.035Z,12.45
2023-01-09T05:53:09.171Z,13.07
2023-01-09T05:55:38.475Z,13.77
2023-01-09T05:58:07.674Z,14.90
2023-01-09T06:00:36.993Z,12.60
2023-01-09T06:03:06.255Z,12.68
2023-01-09T06:05:35.416Z,12.82
2023-01-09T06:08:06.133Z,14.75
2023-01-09T06:10:35.349Z,14.40
2023-01-09T06:13:04.648Z,12.00
2023-01-09T06:15:33.745Z,13.40
2023-01-09T06:18:02.922Z,15.00
2023-01-09T06:20:32.082Z,14.45
2023-01-09T06:23:01.368Z,15.70
2023-01-09T06:25:32.020Z,13.48
2023-01-09T06:28:01.271Z,14.23
2023-01-09T06:30:30.401Z,14.95
2023-01-09T06:32:59.543Z,13.60
2023-01-09T06:35:28.770Z,14.30
2023-01-09T06:37:58.635Z,15.02
2023-01-09T06:40:27.843Z,13.50
2023-01-09T06:42:58.775Z,13.45
2023-01-09T06:45:27.983Z,14.80
2023-01-09T06:47:57.173Z,15.90
2023-01-09T06:50:26.331Z,14.23
2023-01-09T06:52:55.552Z,15.60
2023-01-09T06:55:26.464Z,15.75
2023-01-09T06:57:55.804Z,15.40
2023-01-09T07:00:27.340Z,14.57
2023-01-09T07:02:56.557Z,14.65
2023-01-09T07:05:25.700Z,13.85
2023-01-09T07:07:54.831Z,15.68
2023-01-09T07:10:24.819Z,13.15
2023-01-09T07:12:53.945Z,14.93
2023-01-09T07:15:23.558Z,13.02
2023-01-09T07:17:55.284Z,13.07
2023-01-09T07:20:24.609Z,14.48
2023-01-09T07:22:54.128Z,15.45
2023-01-09T07:25:23.361Z,14.55
2023-01-09T07:27:52.511Z,14.65
2023-01-09T07:30:21.675Z,15.05
2023-01-09T07:32:50.877Z,13.77
2023-01-09T07:35:21.469Z,12.93
2023-01-09T07:37:50.672Z,15.23
2023-01-09T07:40:20.101Z,13.63
2023-01-09T07:42:49.390Z,13.68
2023-01-09T07:45:18.541Z,16.60
2023-01-09T07:47:47.753Z,12.63
2023-01-09T07:50:17.227Z,14.95
2023-01-09T07:52:48.294Z,13.80
2023-01-09T07:55:17.761Z,13.13
2023-01-09T07:57:50.632Z,16.10
2023-01-09T08:00:21.293Z,15.55
2023-01-09T08:02:54.446Z,16.35
2023-01-09T08:05:24.023Z,15.00
2023-01-09T08:07:54.687Z,12.95
2023-01-09T08:10:24.044Z,15.95
2023-01-09T08:12:53.373Z,15.38
2023-01-09T08:15:22.654Z,13.82
2023-01-09T08:17:52.002Z,15.00
2023-01-09T08:20:21.536Z,15.13
2023-01-09T08:22:50.821Z,14.02
2023-01-09T08:25:21.524Z,14.77
2023-01-09T08:27:50.913Z,15.00
2023-01-09T08:30:20.641Z,13.25
2023-01-09T08:32:55.033Z,13.23
2023-01-09T08:35:24.372Z,14.98
2023-01-09T08:37:53.699Z,14.55
2023-01-09T08:40:24.358Z,16.25
2023-01-09T08:43:11.170Z,13.70
2023-01-09T08:45:58.025Z,14.98
2023-01-09T08:48:27.213Z,14.05
2023-01-09T08:50:56.421Z,16.52
2023-01-09T08:53:25.692Z,13.23
2023-01-09T08:55:56.300Z,13.25
2023-01-09T08:58:25.480Z,13.63
2023-01-09T09:00:54.588Z,13.63
2023-01-09T09:03:23.865Z,14.75
2023-01-09T09:05:53.111Z,14.18
2023-01-09T09:08:22.364Z,14.85
2023-01-09T09:10:51.551Z,14.25
2023-01-09T09:13:22.084Z,13.18
2023-01-09T09:15:51.373Z,13.32
2023-01-09T09:18:20.482Z,13.50
2023-01-09T09:20:50.080Z,11.70
2023-01-09T09:23:19.238Z,14.00
2023-01-09T09:25:49.194Z,13.07
2023-01-09T09:28:18.509Z,11.93
2023-01-09T09:30:49.070Z,13.18
2023-01-09T09:33:18.330Z,13.38
2023-01-09T09:35:47.701Z,13.32
2023-01-09T09:38:17.209Z,13.82
2023-01-09T09:41:05.681Z,12.65
2023-01-09T09:44:16.556Z,13.43
2023-01-09T09:46:55.608Z,13.40
2023-01-09T09:49:29.411Z,11.55
2023-01-09T09:52:05.750Z,14.10
2023-01-09T09:54:40.344Z,11.57
2023-01-09T09:57:16.772Z,13.45
2023-01-09T09:59:48.403Z,12.80
2023-01-09T10:02:29.153Z,12.70
2023-01-09T10:05:06.221Z,13.40
2023-01-09T10:07:42.401Z,14.80
2023-01-09T10:10:20.694Z,13.73
2023-01-09T10:12:55.744Z,11.45
2023-01-09T10:15:38.339Z,11.73
2023-01-09T10:18:22.631Z,12.75
2023-01-09T10:20:58.850Z,11.98
2023-01-09T10:23:51.066Z,13.65
2023-01-09T10:26:29.033Z,10.23
2023-01-09T10:29:30.919Z,8.98
2023-01-09T10:32:12.853Z,9.15
2023-01-09T10:34:56.172Z,11.02
2023-01-09T10:37:30.867Z,9.60
2023-01-09T10:40:05.547Z,10.45
2023-01-09T10:42:38.992Z,9.43
2023-01-09T10:45:18.199Z,10.05
2023-01-09T10:47:48.287Z,9.38
2023-01-09T10:50:22.910Z,9.35
2023-01-09T10:52:54.637Z,10.98
2023-01-09T10:55:32.288Z,8.90
2023-01-09T10:58:03.721Z,9.65
2023-01-09T11:00:32.982Z,7.47
2023-01-09T11:03:02.404Z,6.55
2023-01-09T11:05:34.124Z,8.18
2023-01-09T11:08:12.791Z,9.18
2023-01-09T11:10:50.521Z,7.70
2023-01-09T11:13:22.747Z,7.65
2023-01-09T11:16:04.617Z,7.63
2023-01-09T11:18:35.124Z,7.90
2023-01-09T11:21:29.783Z,6.25
2023-01-09T11:24:18.321Z,6.25
2023-01-09T11:26:48.827Z,5.55
2023-01-09T11:29:20.115Z,6.72
2023-01-09T11:31:55.102Z,6.00
2023-01-09T11:34:26.182Z,6.60
2023-01-09T11:37:05.236Z,8.77
2023-01-09T11:39:38.153Z,5.75
2023-01-09T11:42:11.032Z,6.50
2023-01-09T11:44:40.447Z,6.10
2023-01-09T11:47:27.247Z,6.40
2023-01-09T11:50:17.734Z,5.15
2023-01-09T11:53:08.660Z,4.68
2023-01-09T11:55:42.427Z,4.80
2023-01-09T11:58:16.549Z,4.47
2023-01-09T12:00:55.228Z,4.10
2023-01-09T12:03:37.301Z,4.43
2023-01-09T12:06:37.859Z,5.85
2023-01-09T12:09:18.117Z,4.35
2023-01-09T12:11:55.192Z,4.23
2023-01-09T12:14:37.103Z,4.70
2023-01-09T12:17:26.195Z,4.47
2023-01-09T12:20:11.286Z,5.07
2023-01-09T12:22:48.820Z,3.78
2023-01-09T12:25:35.308Z,4.30
2023-01-09T12:28:29.270Z,3.77
2023-01-09T12:31:14.551Z,3.20
2023-01-09T12:33:54.318Z,3.72
2023-01-09T12:36:33.642Z,4.53
2023-01-09T12:39:10.600Z,3.05
2023-01-09T12:42:20.122Z,3.50
2023-01-09T12:44:56.476Z,2.55
2023-01-09T12:47:47.321Z,2.83
2023-01-09T12:50:47.385Z,3.75
2023-01-09T12:53:22.929Z,3.63
2023-01-09T12:55:57.641Z,3.55
2023-01-09T12:58:37.732Z,4.00
2023-01-09T13:01:40.790Z,3.08
2023-01-09T13:04:16.803Z,3.80
2023-01-09T13:06:52.835Z,4.00
2023-01-09T13:09:27.805Z,2.90
2023-01-09T13:12:04.620Z,3.50
2023-01-09T13:14:47.587Z,3.85
2023-01-09T13:17:22.533Z,3.08
2023-01-09T13:19:53.402Z,3.30
2023-01-09T13:22:25.434Z,3.30
2023-01-09T13:25:21.140Z,3.95
2023-01-09T13:27:57.888Z,4.25
2023-01-09T13:30:54.187Z,3.25
2023-01-09T13:33:28.318Z,2.92
2023-01-09T13:36:00.240Z,3.10
2023-01-09T13:38:31.904Z,3.72
2023-01-09T13:41:41.027Z,2.80
2023-01-09T13:44:25.330Z,3.22
2023-01-09T13:46:59.008Z,3.45
2023-01-09T13:49:33.235Z,2.83
2023-01-09T13:52:05.843Z,4.32
2023-01-09T13:55:04.344Z,2.50
2023-01-09T13:57:36.885Z,3.50
2023-01-09T14:00:39.293Z,3.13
2023-01-09T14:03:20.500Z,2.83
2023-01-09T14:06:18.925Z,4.22
2023-01-09T14:08:50.324Z,3.15
2023-01-09T14:11:29.242Z,3.13
2023-01-09T14:14:29.112Z,2.78
2023-01-09T14:16:59.999Z,3.45
2023-01-09T14:19:38.671Z,3.22
2023-01-09T14:22:08.991Z,2.53
2023-01-09T14:24:43.940Z,2.88
2023-01-09T14:27:46.374Z,3.00
2023-01-09T14:30:29.886Z,3.15
2023-01-09T14:33:01.493Z,3.80
2023-01-09T14:35:41.421Z,2.70
2023-01-09T14:38:29.275Z,2.47
2023-01-09T14:41:03.096Z,2.65
2023-01-09T14:43:49.898Z,2.80
2023-01-09T14:46:21.412Z,2.67
2023-01-09T14:49:07.395Z,2.80
2023-01-09T14:51:44.037Z,2.65
2023-01-09T14:54:29.074Z,2.40
2023-01-09T14:56:58.297Z,2.40
2023-01-09T14:59:27.503Z,3.33
2023-01-09T15:02:00.430Z,2.47
2023-01-09T15:04:36.103Z,4.43
2023-01-09T15:07:07.740Z,2.28
2023-01-09T15:09:44.811Z,2.65
2023-01-09T15:12:20.859Z,3.00
2023-01-09T15:14:55.195Z,3.17
2023-01-09T15:17:26.285Z,3.75
2023-01-09T15:19:56.400Z,2.40
2023-01-09T15:22:33.837Z,3.08
2023-01-09T15:25:30.531Z,2.50
2023-01-09T15:28:26.411Z,3.17
2023-01-09T15:31:04.261Z,3.28
2023-01-09T15:33:34.031Z,3.55
2023-01-09T15:36:17.106Z,2.97
2023-01-09T15:38:48.707Z,2.83
2023-01-09T15:41:39.951Z,2.95
2023-01-09T15:44:15.896Z,2.63
2023-01-09T15:46:46.639Z,3.90
2023-01-09T15:49:16.426Z,4.18
2023-01-09T15:51:48.080Z,3.97
2023-01-09T15:54:22.304Z,3.08
2023-01-09T15:56:51.515Z,3.72
2023-01-09T15:59:29.221Z,3.33
2023-01-09T16:02:14.616Z,4.13
2023-01-09T16:04:44.167Z,3.28
2023-01-09T16:07:17.138Z,3.83
2023-01-09T16:09:49.098Z,3.17
2023-01-09T16:12:22.998Z,3.00
2023-01-09T16:14:55.987Z,3.92
2023-01-09T16:17:26.788Z,6.82
2023-01-09T16:19:58.192Z,4.95
2023-01-09T16:22:28.778Z,11.93
2023-01-09T16:25:01.123Z,3.50
2023-01-09T16:27:33.339Z,3.20
2023-01-09T16:30:03.685Z,3.65
2023-01-09T16:32:35.173Z,2.95
2023-01-09T16:35:06.865Z,2.97
2023-01-09T16:37:37.534Z,6.30
2023-01-09T16:40:31.928Z,3.67
2023-01-09T16:43:01.477Z,6.03
2023-01-09T16:45:32.897Z,2.45
2023-01-09T16:48:02.349Z,3.08
2023-01-09T16:50:31.867Z,3.08
2023-01-09T16:53:04.388Z,6.32
2023-01-09T16:55:35.163Z,4.20
2023-01-09T16:58:04.465Z,3.05
2023-01-09T17:00:33.588Z,3.25
2023-01-09T17:03:03.881Z,3.80
2023-01-09T17:05:33.793Z,4.25
2023-01-09T17:08:06.271Z,3.58
2023-01-09T17:10:36.988Z,2.67
2023-01-09T17:13:07.993Z,4.18
2023-01-09T17:15:38.321Z,2.55
2023-01-09T17:18:13.810Z,2.72
2023-01-09T17:20:45.032Z,2.42
2023-01-09T17:23:15.103Z,3.20
2023-01-09T17:26:03.396Z,2.75
2023-01-09T17:28:36.024Z,2.35
2023-01-09T17:31:09.275Z,3.33
2023-01-09T17:33:40.443Z,3.35
2023-01-09T17:36:27.984Z,4.00
2023-01-09T17:38:57.632Z,2.15
2023-01-09T17:41:30.743Z,2.30
2023-01-09T17:44:01.262Z,2.60
2023-01-09T17:46:33.486Z,3.65
2023-01-09T17:49:03.614Z,2.20
2023-01-09T17:51:33.258Z,3.38
2023-01-09T17:54:02.489Z,1.40
2023-01-09T17:56:37.512Z,1.67
2023-01-09T17:59:07.035Z,2.25
2023-01-09T18:01:36.478Z,1.80
2023-01-09T18:04:10.745Z,2.90
2023-01-09T18:06:40.293Z,3.00
2023-01-09T18:09:15.424Z,3.53
2023-01-09T18:11:47.761Z,2.65
2023-01-09T18:14:17.970Z,3.15
2023-01-09T18:16:47.432Z,2.22
2023-01-09T18:19:20.904Z,2.08
2023-01-09T18:21:53.971Z,2.85
2023-01-09T18:24:23.364Z,2.08
2023-01-09T18:26:59.579Z,2.90
2023-01-09T18:29:28.900Z,2.63
2023-01-09T18:31:59.026Z,2.45
2023-01-09T18:34:28.397Z,2.20
2023-01-09T18:36:57.946Z,3.00
2023-01-09T18:39:27.266Z,3.30
2023-01-09T18:41:58.047Z,2.78
2023-01-09T18:44:27.498Z,4.03
2023-01-09T18:46:56.704Z,3.03
2023-01-09T18:49:26.020Z,4.45
2023-01-09T18:51:55.564Z,3.20
2023-01-09T18:54:24.912Z,2.03
2023-01-09T18:56:54.247Z,2.65
2023-01-09T18:59:25.077Z,2.88
2023-01-09T19:01:54.436Z,2.20
2023-01-09T19:04:23.807Z,3.00
2023-01-09T19:06:58.232Z,3.33
2023-01-09T19:09:28.196Z,3.70
2023-01-09T19:11:57.594Z,3.30
2023-01-09T19:14:55.520Z,3.40
2023-01-09T19:17:28.657Z,2.72
2023-01-09T19:20:06.001Z,2.10
2023-01-09T19:22:37.721Z,2.33
2023-01-09T19:25:14.052Z,2.13
2023-01-09T19:27:45.739Z,3.03
2023-01-09T19:30:17.440Z,2.72
2023-01-09T19:32:47.673Z,3.17
2023-01-09T19:35:18.719Z,2.45
2023-01-09T19:37:48.317Z,2.95
2023-01-09T19:40:18.006Z,2.20
2023-01-09T19:42:48.710Z,3.00
2023-01-09T19:45:19.539Z,2.05
2023-01-09T19:47:49.552Z,4.28
2023-01-09T19:50:19.451Z,2.65
2023-01-09T19:52:48.780Z,4.30
2023-01-09T19:55:18.590Z,3.00
2023-01-09T19:57:48.098Z,3.03
2023-01-09T20:00:25.796Z,2.78
2023-01-09T20:02:58.208Z,2.80
2023-01-09T20:05:27.507Z,2.70
2023-01-09T20:07:57.639Z,2.17
2023-01-09T20:10:29.481Z,2.60
2023-01-09T20:13:01.020Z,2.55
2023-01-09T20:15:31.913Z,1.90
2023-01-09T20:18:02.079Z,2.67
2023-01-09T20:20:31.574Z,2.85
2023-01-09T20:23:01.267Z,1.77
2023-01-09T20:25:31.274Z,1.98
2023-01-09T20:28:05.843Z,1.98
2023-01-09T20:30:36.688Z,2.05
2023-01-09T20:33:10.395Z,2.63
2023-01-09T20:35:39.604Z,2.80
2023-01-09T20:38:09.209Z,2.10
2023-01-09T20:40:39.655Z,2.35
2023-01-09T20:43:10.625Z,2.47
2023-01-09T20:45:41.993Z,1.85
2023-01-09T20:48:11.587Z,2.15
2023-01-09T20:50:44.050Z,2.05
2023-01-09T20:53:13.483Z,2.40
2023-01-09T20:55:42.695Z,2.90
2023-01-09T20:58:12.075Z,1.98
2023-01-09T21:00:42.721Z,1.83
2023-01-09T21:03:16.470Z,2.00
2023-01-09T21:05:45.847Z,2.22
2023-01-09T21:08:15.279Z,2.25
2023-01-09T21:10:44.814Z,2.50
2023-01-09T21:13:14.003Z,1.88
2023-01-09T21:15:44.909Z,1.52
2023-01-09T21:18:15.171Z,1.90
2023-01-09T21:20:44.656Z,1.23
2023-01-09T21:23:14.130Z,1.50
2023-01-09T21:25:44.800Z,2.53
2023-01-09T21:28:16.377Z,1.95
2023-01-09T21:30:49.776Z,2.80
2023-01-09T21:33:21.826Z,2.30
2023-01-09T21:35:55.555Z,2.17
2023-01-09T21:38:25.815Z,1.80
2023-01-09T21:40:56.121Z,1.77
2023-01-09T21:43:51.327Z,2.70
2023-01-09T21:46:39.817Z,2.35
2023-01-09T21:49:09.157Z,1.63
2023-01-09T21:51:41.353Z,2.05
2023-01-09T21:54:10.948Z,1.55
2023-01-09T21:56:40.412Z,2.05
2023-01-09T21:59:10.259Z,2.08
2023-01-09T22:01:41.093Z,1.92
2023-01-09T22:04:10.593Z,1.70
2023-01-09T22:06:39.942Z,1.30
2023-01-09T22:09:10.162Z,1.67
2023-01-09T22:11:40.172Z,1.88
2023-01-09T22:14:14.709Z,4.10
2023-01-09T22:16:47.773Z,2.20
2023-01-09T22:19:18.645Z,1.80
2023-01-09T22:21:48.187Z,2.35
2023-01-09T22:24:19.103Z,1.85
2023-01-09T22:26:48.889Z,2.03
2023-01-09T22:29:18.350Z,1.88
2023-01-09T22:31:49.045Z,1.50
2023-01-09T22:34:19.542Z,1.83
2023-01-09T22:36:51.985Z,1.67
2023-01-09T22:39:22.000Z,1.77
2023-01-09T22:41:55.297Z,1.30
2023-01-09T22:44:24.756Z,2.05
2023-01-09T22:46:56.758Z,1.58
2023-01-09T22:49:28.242Z,1.77
2023-01-09T22:51:59.862Z,2.35
2023-01-09T22:54:29.227Z,2.30
2023-01-09T22:56:58.412Z,2.10
2023-01-09T22:59:28.796Z,2.00
2023-01-09T23:02:00.485Z,2.22
2023-01-09T23:04:29.985Z,1.63
2023-01-09T23:06:59.253Z,1.77
2023-01-09T23:09:28.816Z,2.10
2023-01-09T23:12:04.169Z,2.53
2023-01-09T23:14:36.821Z,2.22
2023-01-09T23:17:08.900Z,2.40
2023-01-09T23:19:38.246Z,2.60
2023-01-09T23:22:07.811Z,2.80
2023-01-09T23:24:37.080Z,2.22
2023-01-09T23:27:07.581Z,2.40
2023-01-09T23:29:38.806Z,2.22
2023-01-09T23:32:12.245Z,2.38
2023-01-09T23:34:41.777Z,2.05
2023-01-09T23:37:14.376Z,1.85
2023-01-09T23:39:43.554Z,2.35
2023-01-09T23:42:30.734Z,1.80
2023-01-09T23:45:00.492Z,2.40
2023-01-09T23:47:31.217Z,3.22
2023-01-09T23:50:00.889Z,2.95
2023-01-09T23:52:30.116Z,2.40
2023-01-09T23:54:59.357Z,2.38
2023-01-09T23:57:30.691Z,2.13
